Time;durP1;ratioP1;P1;durP2;ratioP2;P2;SDS_P1;SDS_P2;PMS_P1;PMS_P2;Temp;Humidity;BMP_temperature;BMP_pressure;BME280_temperature;BME280_humidity;BME280_pressure;Samples;Min_cycle;Max_cycle;Signal;HPM_P1;HPM_P2
2021/04/24 00:02:16;;;;;;;15.87;6.57;;;7.60;71.30;;;;;;5073226;28;20037;-77
2021/04/24 00:04:42;;;;;;;16.97;8.03;;;7.50;71.70;;;;;;5056178;28;20043;-77
2021/04/24 00:07:08;;;;;;;21.23;7.77;;;7.50;71.90;;;;;;5074133;28;20033;-77
2021/04/24 00:09:34;;;;;;;14.30;6.77;;;7.50;72.20;;;;;;5073557;28;20028;-77
2021/04/24 00:12:00;;;;;;;17.53;6.97;;;7.40;71.80;;;;;;5073551;28;20029;-77
2021/04/24 00:14:26;;;;;;;14.87;7.60;;;7.50;72.30;;;;;;5055659;28;20442;-77
2021/04/24 00:16:51;;;;;;;14.13;6.57;;;7.40;72.30;;;;;;5039623;28;20532;-77
2021/04/24 00:19:17;;;;;;;16.97;8.13;;;7.30;72.40;;;;;;5055542;28;20067;-77
2021/04/24 00:21:43;;;;;;;16.23;7.67;;;7.30;72.90;;;;;;5073383;28;21088;-77
2021/04/24 00:24:09;;;;;;;13.40;6.63;;;7.30;72.80;;;;;;5055640;28;20040;-77
2021/04/24 00:26:34;;;;;;;16.37;7.83;;;7.30;73.10;;;;;;5056094;28;20032;-77
2021/04/24 00:29:00;;;;;;;13.70;7.07;;;7.30;73.60;;;;;;5073418;28;20035;-77
2021/04/24 00:31:25;;;;;;;18.57;7.43;;;7.20;73.50;;;;;;5055727;28;20025;-77
2021/04/24 00:33:51;;;;;;;15.43;7.77;;;7.20;73.90;;;;;;5073620;28;20461;-77
2021/04/24 00:36:16;;;;;;;16.00;6.97;;;7.20;73.90;;;;;;5073180;28;20036;-77
2021/04/24 00:38:42;;;;;;;13.33;6.27;;;7.10;74.00;;;;;;5073397;28;20369;-77
2021/04/24 00:41:09;;;;;;;15.73;6.73;;;7.10;74.20;;;;;;5073757;28;20036;-77
2021/04/24 00:43:34;;;;;;;17.13;7.17;;;7.10;73.70;;;;;;5055560;28;20028;-77
2021/04/24 00:46:08;;;;;;;15.97;7.07;;;7.10;74.60;;;;;;5055969;28;20082;-77
2021/04/24 00:48:34;;;;;;;16.80;7.43;;;7.00;73.80;;;;;;5073586;28;20029;-77
2021/04/24 00:51:00;;;;;;;15.57;6.70;;;7.00;74.10;;;;;;5073285;28;20040;-77
2021/04/24 00:53:26;;;;;;;13.27;6.47;;;7.00;73.90;;;;;;5055174;28;20111;-77
2021/04/24 00:55:51;;;;;;;14.17;6.83;;;7.00;74.10;;;;;;5055232;28;20025;-77
2021/04/24 00:58:17;;;;;;;16.37;7.50;;;7.00;74.00;;;;;;5074429;28;20147;-77
2021/04/24 01:00:43;;;;;;;14.37;6.00;;;7.00;74.10;;;;;;5077778;28;20495;-77
2021/04/24 01:03:09;;;;;;;15.63;6.83;;;7.00;73.90;;;;;;5042571;28;20132;-77
2021/04/24 01:05:38;;;;;;;15.37;7.30;;;6.90;74.40;;;;;;5077189;28;20029;-77
2021/04/24 01:08:04;;;;;;;16.23;7.37;;;6.90;74.70;;;;;;5059003;28;20063;-77
2021/04/24 01:10:32;;;;;;;13.80;6.37;;;6.90;74.50;;;;;;5059346;28;20036;-76
2021/04/24 01:12:58;;;;;;;16.30;7.03;;;6.90;74.80;;;;;;5077049;28;20546;-76
2021/04/24 01:15:24;;;;;;;13.43;6.63;;;6.90;74.30;;;;;;5059190;28;20021;-77
2021/04/24 01:17:50;;;;;;;14.90;6.97;;;6.80;74.20;;;;;;5058765;28;20066;-76
2021/04/24 01:20:17;;;;;;;14.70;6.53;;;6.80;74.20;;;;;;5058208;28;20029;-77
2021/04/24 01:22:47;;;;;;;15.67;6.67;;;6.80;74.40;;;;;;5022278;28;20025;-77
2021/04/24 01:25:22;;;;;;;14.67;6.03;;;6.80;74.80;;;;;;5056914;28;20029;-76
2021/04/24 01:27:56;;;;;;;13.73;5.97;;;6.80;74.40;;;;;;5056609;28;20019;-76
2021/04/24 01:30:25;;;;;;;12.88;6.03;;;6.80;74.40;;;;;;5040238;28;20503;-76
2021/04/24 01:32:52;;;;;;;13.73;6.60;;;6.70;74.40;;;;;;5066127;28;20024;-77
2021/04/24 01:35:21;;;;;;;12.30;6.50;;;6.60;74.40;;;;;;5058567;28;20414;-76
2021/04/24 01:37:47;;;;;;;13.60;6.27;;;6.70;74.50;;;;;;5076765;28;20170;-76
2021/04/24 01:40:15;;;;;;;15.17;7.50;;;6.60;74.60;;;;;;5058874;28;20475;-76
2021/04/24 01:42:42;;;;;;;13.53;6.20;;;6.60;74.90;;;;;;5076475;28;20028;-76
2021/04/24 01:45:09;;;;;;;13.80;7.63;;;6.60;75.10;;;;;;5076382;28;20033;-76
2021/04/24 01:47:41;;;;;;;16.87;6.73;;;6.50;75.20;;;;;;5076674;28;20021;-76
2021/04/24 01:50:12;;;;;;;15.30;7.93;;;6.60;75.50;;;;;;5075965;28;20060;-76
2021/04/24 01:52:40;;;;;;;13.63;7.03;;;6.50;75.20;;;;;;5076189;28;20424;-76
2021/04/24 01:55:09;;;;;;;14.27;7.23;;;6.60;75.50;;;;;;5076390;28;20025;-77
2021/04/24 01:57:38;;;;;;;16.47;7.60;;;6.40;75.50;;;;;;5058045;28;20031;-77
2021/04/24 02:00:07;;;;;;;16.00;6.83;;;6.50;75.60;;;;;;5076130;28;20040;-76
2021/04/24 02:02:33;;;;;;;12.87;6.17;;;6.40;75.80;;;;;;5058031;28;20028;-76
2021/04/24 02:05:05;;;;;;;14.10;7.90;;;6.40;75.80;;;;;;5076144;28;20052;-77
2021/04/24 02:07:31;;;;;;;16.87;7.33;;;6.40;76.30;;;;;;5058176;28;20035;-77
2021/04/24 02:09:56;;;;;;;15.10;7.60;;;6.40;76.10;;;;;;5075103;28;20469;-77
2021/04/24 02:12:22;;;;;;;15.70;6.57;;;6.40;76.30;;;;;;5058492;28;20035;-77
2021/04/24 02:14:50;;;;;;;16.37;6.57;;;6.40;76.10;;;;;;5076124;28;20384;-77
2021/04/24 02:17:25;;;;;;;15.00;7.13;;;6.30;76.40;;;;;;5057927;28;20020;-77
2021/04/24 02:19:52;;;;;;;15.70;7.10;;;6.40;76.10;;;;;;5058194;28;20032;-77
2021/04/24 02:22:20;;;;;;;13.07;7.07;;;6.30;76.00;;;;;;5057884;28;20436;-77
2021/04/24 02:24:47;;;;;;;16.70;7.83;;;6.30;76.30;;;;;;5064270;28;20094;-77
2021/04/24 02:27:14;;;;;;;14.20;7.10;;;6.30;76.20;;;;;;5055759;28;20465;-77
2021/04/24 02:29:41;;;;;;;18.20;7.50;;;6.30;76.20;;;;;;5037894;28;20112;-77
2021/04/24 02:32:07;;;;;;;16.33;7.90;;;6.30;76.70;;;;;;5022020;28;20033;-77
2021/04/24 02:34:33;;;;;;;16.37;6.53;;;6.30;76.60;;;;;;5038025;28;20025;-76
2021/04/24 02:36:59;;;;;;;15.20;6.80;;;6.30;76.80;;;;;;5057116;28;20392;-76
2021/04/24 02:39:30;;;;;;;15.57;7.37;;;6.20;76.90;;;;;;5075173;28;20103;-77
2021/04/24 02:41:56;;;;;;;14.37;7.43;;;6.20;77.00;;;;;;5075490;28;20085;-76
2021/04/24 02:44:21;;;;;;;13.73;6.70;;;6.20;77.00;;;;;;5075723;28;20035;-77
2021/04/24 02:46:47;;;;;;;15.40;7.70;;;6.20;77.10;;;;;;5058123;28;20029;-76
2021/04/24 02:49:13;;;;;;;13.17;6.90;;;6.10;77.60;;;;;;5075468;28;20391;-76
2021/04/24 02:51:38;;;;;;;14.30;6.83;;;6.00;77.00;;;;;;5075555;28;20071;-77
2021/04/24 02:54:04;;;;;;;16.87;7.90;;;6.00;77.30;;;;;;5057088;28;20090;-77
2021/04/24 02:56:30;;;;;;;13.80;6.77;;;6.00;77.30;;;;;;5057108;28;20545;-76
2021/04/24 02:58:55;;;;;;;15.27;7.10;;;6.00;77.30;;;;;;5075245;28;20032;-76
2021/04/24 03:01:21;;;;;;;14.30;6.83;;;6.00;77.30;;;;;;5057394;28;20380;-77
2021/04/24 03:03:47;;;;;;;19.90;8.10;;;6.10;77.20;;;;;;5057101;28;20076;-76
2021/04/24 03:06:12;;;;;;;21.03;7.30;;;5.90;77.10;;;;;;5075248;28;20107;-76
2021/04/24 03:08:38;;;;;;;16.53;7.30;;;5.90;77.40;;;;;;5056833;28;20040;-76
2021/04/24 03:11:04;;;;;;;17.47;7.63;;;5.90;77.60;;;;;;5056520;28;20070;-77
2021/04/24 03:13:29;;;;;;;19.00;7.53;;;5.90;77.60;;;;;;5040924;28;20128;-77
2021/04/24 03:15:55;;;;;;;14.97;7.20;;;5.80;77.60;;;;;;5057005;28;20056;-76
2021/04/24 03:18:21;;;;;;;18.10;7.63;;;5.80;77.40;;;;;;5069269;28;20029;-77
2021/04/24 03:20:46;;;;;;;15.80;7.63;;;5.80;77.60;;;;;;5058790;28;20029;-77
2021/04/24 03:23:12;;;;;;;16.47;6.70;;;5.80;77.50;;;;;;5035730;28;20037;-77
2021/04/24 03:25:38;;;;;;;16.17;6.17;;;5.80;77.40;;;;;;5056583;28;20122;-77
2021/04/24 03:28:04;;;;;;;19.70;6.73;;;5.80;77.40;;;;;;5056965;28;20036;-76
2021/04/24 03:30:30;;;;;;;18.43;7.37;;;5.80;77.60;;;;;;5074380;28;20044;-77
2021/04/24 03:32:56;;;;;;;14.23;6.90;;;5.70;77.60;;;;;;5074662;28;20045;-77
2021/04/24 03:35:21;;;;;;;14.73;6.90;;;5.80;77.70;;;;;;5055460;28;20033;-77
2021/04/24 03:37:47;;;;;;;15.37;6.90;;;5.70;77.70;;;;;;5074386;28;20058;-77
2021/04/24 03:40:13;;;;;;;15.53;6.93;;;5.80;77.80;;;;;;5056607;28;20357;-77
2021/04/24 03:42:39;;;;;;;15.17;7.43;;;5.70;77.70;;;;;;5074089;28;20498;-77
2021/04/24 03:45:17;;;;;;;14.07;7.40;;;5.70;77.70;;;;;;5055893;28;20024;-77
2021/04/24 03:47:44;;;;;;;13.07;6.37;;;5.70;77.90;;;;;;5058364;28;20035;-77
2021/04/24 03:50:11;;;;;;;14.80;6.93;;;5.70;77.90;;;;;;5074115;28;20029;-77
2021/04/24 03:52:36;;;;;;;15.70;7.30;;;5.60;77.80;;;;;;5073868;28;20024;-76
2021/04/24 03:55:02;;;;;;;20.03;7.00;;;5.60;77.90;;;;;;5073980;28;20083;-77
2021/04/24 03:57:28;;;;;;;13.90;6.90;;;5.50;77.90;;;;;;5056140;28;20063;-77
2021/04/24 03:59:53;;;;;;;16.00;7.03;;;5.50;78.00;;;;;;5074067;28;20068;-77
2021/04/24 04:02:19;;;;;;;15.33;6.13;;;5.50;78.00;;;;;;5055042;28;20044;-77
2021/04/24 04:04:45;;;;;;;15.47;7.17;;;5.50;78.10;;;;;;5073334;28;20127;-77
2021/04/24 04:07:10;;;;;;;13.57;6.33;;;5.50;78.20;;;;;;5073479;28;20034;-77
2021/04/24 04:09:36;;;;;;;14.43;6.60;;;5.40;78.20;;;;;;5039509;28;20388;-78
2021/04/24 04:12:02;;;;;;;16.73;7.00;;;5.40;78.20;;;;;;5073706;28;20103;-77
2021/04/24 04:14:28;;;;;;;13.53;5.70;;;5.40;78.20;;;;;;5055819;28;20440;-77
2021/04/24 04:16:54;;;;;;;18.33;6.80;;;5.40;78.30;;;;;;5073479;28;20024;-77
2021/04/24 04:19:19;;;;;;;12.03;6.00;;;5.40;78.40;;;;;;5073846;28;20042;-77
2021/04/24 04:21:45;;;;;;;14.60;7.03;;;5.40;78.50;;;;;;5055981;28;20039;-77
2021/04/24 04:24:10;;;;;;;14.30;6.60;;;5.40;78.60;;;;;;5022575;28;20060;-76
2021/04/24 04:26:36;;;;;;;14.37;6.97;;;5.30;78.70;;;;;;5056037;28;20043;-77
2021/04/24 04:29:02;;;;;;;17.93;6.97;;;5.30;79.40;;;;;;5055771;28;20495;-77
2021/04/24 04:31:27;;;;;;;16.57;7.00;;;5.30;78.90;;;;;;5038793;28;20021;-76
2021/04/24 04:33:53;;;;;;;16.87;6.70;;;5.30;79.10;;;;;;5054803;28;20476;-77
2021/04/24 04:36:18;;;;;;;19.20;6.27;;;5.30;79.10;;;;;;5038914;28;20070;-76
2021/04/24 04:38:44;;;;;;;15.67;6.77;;;5.30;79.20;;;;;;5055199;28;20466;-76
2021/04/24 04:41:10;;;;;;;16.33;7.23;;;5.40;79.30;;;;;;5055521;28;20116;-77
2021/04/24 04:43:36;;;;;;;14.47;6.67;;;5.30;79.40;;;;;;5055476;28;20476;-76
2021/04/24 04:46:01;;;;;;;13.93;6.57;;;5.40;79.70;;;;;;5055272;28;20534;-76
2021/04/24 04:48:27;;;;;;;16.07;7.33;;;5.40;79.60;;;;;;5071660;28;20036;-77
2021/04/24 04:50:53;;;;;;;14.60;6.40;;;5.40;80.10;;;;;;5072842;28;20028;-77
2021/04/24 04:53:18;;;;;;;15.83;6.47;;;5.40;80.10;;;;;;5073080;28;20107;-76
2021/04/24 04:55:44;;;;;;;15.57;6.53;;;5.40;80.10;;;;;;5038593;28;20469;-77
2021/04/24 04:58:10;;;;;;;14.50;6.33;;;5.40;80.20;;;;;;5073179;28;20029;-76
2021/04/24 05:00:35;;;;;;;13.87;6.43;;;5.50;80.20;;;;;;5055244;28;20461;-77
2021/04/24 05:03:01;;;;;;;13.20;6.20;;;5.50;80.20;;;;;;5072641;28;20500;-77
2021/04/24 05:05:26;;;;;;;15.00;7.00;;;5.60;80.40;;;;;;5072920;28;20040;-77
2021/04/24 05:07:52;;;;;;;12.00;5.97;;;5.60;80.30;;;;;;5073342;28;20033;-77
2021/04/24 05:10:20;;;;;;;12.90;5.80;;;5.60;80.60;;;;;;5038302;28;20051;-77
2021/04/24 05:12:46;;;;;;;17.43;7.63;;;5.70;80.70;;;;;;5073366;28;20020;-77
2021/04/24 05:15:12;;;;;;;14.03;6.10;;;5.70;80.70;;;;;;5073167;28;20021;-77
2021/04/24 05:17:38;;;;;;;12.20;5.37;;;5.80;80.50;;;;;;5073420;28;20092;-77
2021/04/24 05:20:07;;;;;;;14.80;5.70;;;5.90;80.60;;;;;;5055344;28;20472;-77
2021/04/24 05:22:33;;;;;;;12.80;5.60;;;5.80;80.70;;;;;;5073082;28;20048;-76
2021/04/24 05:24:59;;;;;;;16.67;5.70;;;5.90;80.90;;;;;;5055115;28;20054;-77
2021/04/24 05:27:26;;;;;;;11.97;5.63;;;6.00;80.70;;;;;;5055434;28;20065;-77
2021/04/24 05:29:51;;;;;;;13.43;4.63;;;6.00;80.70;;;;;;5038341;28;20032;-77
2021/04/24 05:32:17;;;;;;;13.20;4.70;;;6.00;80.70;;;;;;5055010;28;20016;-77
2021/04/24 05:34:43;;;;;;;10.40;4.43;;;6.10;80.70;;;;;;5073535;28;20073;-77
2021/04/24 05:37:08;;;;;;;10.33;4.67;;;6.20;80.80;;;;;;5072700;28;20437;-77
2021/04/24 05:39:35;;;;;;;11.00;4.43;;;6.20;80.90;;;;;;5055038;28;20029;-77
2021/04/24 05:42:00;;;;;;;13.43;5.13;;;6.20;81.10;;;;;;5055308;28;20029;-77
2021/04/24 05:44:26;;;;;;;11.63;4.73;;;6.30;81.00;;;;;;5055080;28;20507;-78
2021/04/24 05:46:51;;;;;;;10.93;4.47;;;6.40;81.00;;;;;;5058223;28;20510;-77
2021/04/24 05:49:17;;;;;;;12.30;4.60;;;6.50;81.00;;;;;;5058507;28;20046;-77
2021/04/24 05:51:43;;;;;;;7.97;3.70;;;6.50;81.10;;;;;;5075249;28;20037;-77
2021/04/24 05:54:09;;;;;;;12.93;4.70;;;6.60;81.20;;;;;;5044178;28;20128;-77
2021/04/24 05:56:35;;;;;;;14.97;5.57;;;6.70;81.80;;;;;;5071388;28;20108;-77
2021/04/24 05:59:00;;;;;;;13.37;4.77;;;6.80;81.80;;;;;;5076273;28;20153;-77
2021/04/24 06:01:26;;;;;;;10.73;4.73;;;6.90;82.80;;;;;;5076272;28;20384;-77
2021/04/24 06:03:55;;;;;;;13.33;3.97;;;7.10;82.20;;;;;;5057978;28;20045;-77
2021/04/24 06:06:21;;;;;;;8.57;3.27;;;7.10;82.00;;;;;;5056891;28;20024;-78
2021/04/24 06:08:47;;;;;;;11.93;5.23;;;7.20;82.20;;;;;;5045433;28;20033;-76
2021/04/24 06:11:13;;;;;;;11.97;3.70;;;7.30;82.60;;;;;;5073856;28;20032;-76
2021/04/24 06:13:38;;;;;;;13.37;3.57;;;7.30;82.90;;;;;;5058164;28;20020;-77
2021/04/24 06:16:04;;;;;;;11.17;3.67;;;7.60;82.20;;;;;;5057591;28;20111;-77
2021/04/24 06:18:30;;;;;;;9.63;3.90;;;7.50;81.80;;;;;;5037809;28;20036;-77
2021/04/24 06:20:56;;;;;;;12.03;4.00;;;7.50;81.40;;;;;;5054809;28;20029;-77
2021/04/24 06:23:21;;;;;;;10.33;3.47;;;7.60;81.40;;;;;;5021532;28;20029;-77
2021/04/24 06:25:47;;;;;;;9.77;3.93;;;7.60;81.40;;;;;;5039061;28;20025;-77
2021/04/24 06:28:12;;;;;;;9.13;3.67;;;7.70;81.30;;;;;;5075812;28;20039;-76
2021/04/24 06:30:38;;;;;;;9.17;4.27;;;7.70;81.10;;;;;;5075789;28;20040;-76
2021/04/24 06:33:04;;;;;;;10.23;3.80;;;7.80;80.90;;;;;;5057682;28;20029;-76
2021/04/24 06:35:30;;;;;;;8.73;3.23;;;7.80;80.70;;;;;;5075581;28;20035;-77
2021/04/24 06:37:57;;;;;;;11.43;3.53;;;7.80;80.50;;;;;;5041362;28;20024;-77
2021/04/24 06:40:24;;;;;;;9.93;3.40;;;7.90;80.60;;;;;;5075742;28;20116;-76
2021/04/24 06:42:50;;;;;;;10.57;3.63;;;7.90;80.50;;;;;;5057996;28;20119;-77
2021/04/24 06:45:17;;;;;;;8.93;3.67;;;8.00;80.40;;;;;;5075822;28;20111;-77
2021/04/24 06:47:43;;;;;;;9.50;4.43;;;8.00;80.50;;;;;;5075410;28;20110;-77
2021/04/24 06:50:11;;;;;;;9.53;3.80;;;8.10;80.30;;;;;;5074769;28;20472;-76
2021/04/24 06:52:37;;;;;;;13.70;3.77;;;8.20;80.30;;;;;;5075494;28;20063;-77
2021/04/24 06:55:04;;;;;;;12.57;4.60;;;8.20;80.20;;;;;;5075447;28;20027;-77
2021/04/24 06:57:30;;;;;;;12.37;3.53;;;8.30;80.10;;;;;;5057326;28;20465;-77
2021/04/24 06:59:56;;;;;;;10.47;3.53;;;8.30;79.80;;;;;;5057011;28;20090;-77
2021/04/24 07:02:21;;;;;;;9.23;4.10;;;8.50;79.80;;;;;;5075464;28;20035;-77
2021/04/24 07:04:47;;;;;;;11.70;3.47;;;8.50;79.40;;;;;;5053715;28;20396;-76
2021/04/24 07:07:13;;;;;;;9.53;3.37;;;8.50;79.10;;;;;;5055300;28;20369;-77
2021/04/24 07:09:38;;;;;;;10.83;4.00;;;8.60;78.80;;;;;;5055253;28;20539;-77
2021/04/24 07:12:05;;;;;;;9.77;3.70;;;8.70;78.40;;;;;;5054877;28;20464;-76
2021/04/24 07:14:31;;;;;;;7.87;3.67;;;8.70;78.10;;;;;;5054854;28;20480;-76
2021/04/24 07:16:57;;;;;;;5.33;2.90;;;8.80;77.90;;;;;;5055175;28;20025;-70
2021/04/24 07:19:22;;;;;;;7.77;2.87;;;8.80;77.70;;;;;;5053306;28;20025;-71
2021/04/24 07:21:48;;;;;;;7.77;2.73;;;8.80;77.40;;;;;;5036892;28;20029;-71
2021/04/24 07:24:14;;;;;;;8.17;3.00;;;8.90;76.90;;;;;;5054611;28;20047;-72
2021/04/24 07:26:40;;;;;;;8.70;2.80;;;8.90;76.30;;;;;;5054302;28;20029;-71
2021/04/24 07:29:06;;;;;;;6.63;2.83;;;8.90;76.00;;;;;;5053283;28;20025;-72
2021/04/24 07:31:33;;;;;;;5.90;2.37;;;9.00;75.20;;;;;;5053181;28;20029;-72
2021/04/24 07:33:59;;;;;;;7.20;2.70;;;9.00;73.80;;;;;;5054550;28;20045;-72
2021/04/24 07:36:26;;;;;;;5.40;1.83;;;9.10;72.60;;;;;;5053196;28;20127;-72
2021/04/24 07:38:52;;;;;;;5.73;1.90;;;9.20;71.70;;;;;;5054391;28;20036;-72
2021/04/24 07:41:18;;;;;;;5.97;1.80;;;9.20;71.20;;;;;;5054081;28;20025;-71
2021/04/24 07:43:43;;;;;;;8.30;2.67;;;9.30;70.70;;;;;;5036663;28;20054;-72
2021/04/24 07:46:09;;;;;;;5.67;2.07;;;9.30;70.00;;;;;;5053027;28;20025;-72
2021/04/24 07:48:34;;;;;;;6.63;2.40;;;9.30;69.90;;;;;;5053829;28;20090;-72
2021/04/24 07:51:00;;;;;;;5.63;2.30;;;9.40;69.50;;;;;;5036349;28;20056;-72
2021/04/24 07:53:26;;;;;;;4.57;1.93;;;9.50;69.80;;;;;;5036137;28;20025;-72
2021/04/24 07:55:51;;;;;;;4.83;1.77;;;9.50;69.00;;;;;;5052812;28;20025;-72
2021/04/24 07:58:17;;;;;;;4.27;1.93;;;9.60;68.20;;;;;;5052671;28;20024;-72
2021/04/24 08:00:43;;;;;;;6.13;2.40;;;9.60;68.10;;;;;;5036234;28;20070;-72
2021/04/24 08:03:09;;;;;;;7.13;2.10;;;9.70;68.30;;;;;;5036350;28;20036;-72
2021/04/24 08:05:34;;;;;;;5.33;1.60;;;9.70;67.00;;;;;;5052021;28;20049;-73
2021/04/24 08:08:01;;;;;;;4.00;1.13;;;9.80;66.10;;;;;;5051927;28;20074;-72
2021/04/24 08:10:28;;;;;;;5.93;1.97;;;9.90;65.20;;;;;;5052492;28;20487;-72
2021/04/24 08:12:55;;;;;;;6.13;2.17;;;9.90;64.80;;;;;;5052551;28;20017;-72
2021/04/24 08:15:21;;;;;;;5.77;1.53;;;10.00;64.50;;;;;;5053903;28;20017;-72
2021/04/24 08:17:47;;;;;;;4.43;1.93;;;10.10;65.00;;;;;;5053715;28;20036;-72
2021/04/24 08:20:14;;;;;;;5.10;2.00;;;10.10;64.50;;;;;;5053497;28;20799;-72
2021/04/24 08:22:40;;;;;;;6.37;2.20;;;10.20;63.50;;;;;;5035797;28;20133;-71
2021/04/24 08:25:07;;;;;;;9.30;1.80;;;10.30;63.10;;;;;;5053401;28;20021;-72
2021/04/24 08:27:33;;;;;;;4.47;1.50;;;10.40;63.60;;;;;;5052299;28;20124;-72
2021/04/24 08:29:59;;;;;;;5.27;1.57;;;10.50;63.50;;;;;;5053201;28;20104;-72
2021/04/24 08:32:24;;;;;;;7.77;2.43;;;10.60;62.80;;;;;;5053259;28;20105;-72
2021/04/24 08:34:50;;;;;;;3.00;1.27;;;10.70;62.70;;;;;;5035449;28;20423;-72
2021/04/24 08:37:16;;;;;;;3.03;1.20;;;10.70;61.40;;;;;;5034937;28;20033;-73
2021/04/24 08:39:41;;;;;;;3.07;1.03;;;10.90;61.70;;;;;;5019020;28;20044;-71
2021/04/24 08:42:07;;;;;;;4.20;0.90;;;11.00;61.30;;;;;;5052305;28;20028;-72
2021/04/24 08:44:33;;;;;;;3.13;1.30;;;11.00;60.90;;;;;;5051746;28;20096;-72
2021/04/24 08:46:59;;;;;;;4.70;1.13;;;11.20;59.60;;;;;;5049602;28;20033;-73
2021/04/24 08:49:27;;;;;;;3.73;1.20;;;11.30;59.40;;;;;;5051417;28;20036;-73
2021/04/24 08:51:53;;;;;;;4.43;1.63;;;11.30;58.80;;;;;;5052161;28;20017;-73
2021/04/24 08:54:20;;;;;;;4.97;1.20;;;11.50;58.80;;;;;;5050783;28;20469;-72
2021/04/24 08:56:47;;;;;;;4.53;1.40;;;11.50;58.20;;;;;;5053075;28;20041;-73
2021/04/24 08:59:12;;;;;;;4.20;1.10;;;11.60;58.50;;;;;;5052931;28;20017;-72
2021/04/24 09:01:39;;;;;;;5.40;1.40;;;11.80;58.50;;;;;;5052114;28;20116;-73
2021/04/24 09:04:05;;;;;;;3.08;1.52;;;11.80;57.40;;;;;;5037529;28;20056;-73
2021/04/24 09:06:33;;;;;;;4.68;1.20;;;11.90;56.80;;;;;;5055340;28;20028;-73
2021/04/24 09:09:04;;;;;;;3.90;1.47;;;12.00;55.70;;;;;;5073068;28;20024;-72
2021/04/24 09:11:39;;;;;;;5.40;1.30;;;12.10;56.00;;;;;;5072621;28;20028;-73
2021/04/24 09:14:08;;;;;;;6.57;1.85;;;12.20;55.80;;;;;;5055266;28;20024;-72
2021/04/24 09:16:34;;;;;;;4.82;1.80;;;12.30;55.70;;;;;;5055195;28;20028;-73
2021/04/24 09:19:00;;;;;;;3.40;1.05;;;12.40;55.70;;;;;;5055737;28;20033;-73
2021/04/24 09:21:28;;;;;;;5.55;1.50;;;12.60;55.40;;;;;;5076753;28;20495;-73
2021/04/24 09:23:54;;;;;;;5.13;1.55;;;12.70;54.60;;;;;;5077040;28;20039;-73
2021/04/24 09:26:25;;;;;;;4.43;1.70;;;12.70;54.10;;;;;;5058666;28;20032;-73
2021/04/24 09:29:03;;;;;;;4.78;1.35;;;12.90;53.50;;;;;;5077310;28;20131;-73
2021/04/24 09:31:31;;;;;;;4.20;1.20;;;12.90;53.60;;;;;;5076649;28;20039;-73
2021/04/24 09:34:00;;;;;;;2.97;1.20;;;13.00;53.60;;;;;;5076910;28;20035;-72
2021/04/24 09:36:37;;;;;;;3.33;1.15;;;13.10;53.40;;;;;;5076597;28;20052;-72
2021/04/24 09:39:06;;;;;;;4.78;1.40;;;13.20;51.20;;;;;;5076562;28;20460;-73
2021/04/24 09:41:41;;;;;;;4.40;1.10;;;13.20;50.90;;;;;;5076681;28;20107;-73
2021/04/24 09:44:13;;;;;;;3.05;1.27;;;13.30;51.20;;;;;;5057173;28;20409;-73
2021/04/24 09:46:47;;;;;;;5.20;1.35;;;13.30;50.90;;;;;;5073062;28;20029;-73
2021/04/24 09:49:15;;;;;;;;;;;13.50;51.00;;;;;;5075855;28;20069;-73
2021/04/24 09:51:42;;;;;;;6.93;1.10;;;13.60;51.10;;;;;;5076069;28;19985;-73
2021/04/24 09:54:08;;;;;;;2.67;1.17;;;13.70;50.70;;;;;;5055180;28;20024;-73
2021/04/24 09:56:34;;;;;;;3.53;1.00;;;13.70;50.10;;;;;;5075937;28;20445;-73
2021/04/24 09:59:05;;;;;;;4.97;1.50;;;13.80;49.50;;;;;;5057297;28;20119;-73
2021/04/24 10:01:32;;;;;;;3.83;1.40;;;13.90;49.40;;;;;;5055394;28;20024;-73
2021/04/24 10:04:00;;;;;;;3.60;1.08;;;13.90;49.10;;;;;;5035722;28;20532;-72
2021/04/24 10:06:25;;;;;;;3.75;1.42;;;14.00;48.60;;;;;;5057667;28;20048;-72
2021/04/24 10:09:30;;;;;;;3.72;1.52;;;14.10;49.00;;;;;;5058096;28;20063;-73
2021/04/24 10:12:02;;;;;;;4.35;1.30;;;14.20;48.70;;;;;;5067859;28;20041;-72
2021/04/24 10:14:27;;;;;;;2.50;1.00;;;14.40;48.20;;;;;;5073526;28;20040;-73
2021/04/24 10:16:54;;;;;;;3.83;1.30;;;14.60;47.40;;;;;;5069742;28;20048;-72
2021/04/24 10:19:20;;;;;;;5.03;1.38;;;14.80;46.70;;;;;;5056904;28;20025;-73
2021/04/24 10:21:46;;;;;;;3.08;1.27;;;14.90;46.30;;;;;;5057256;28;20422;-72
2021/04/24 10:24:13;;;;;;;4.53;1.30;;;15.10;45.90;;;;;;5057309;28;20035;-74
2021/04/24 10:26:41;;;;;;;5.10;1.10;;;15.40;45.60;;;;;;5075161;28;20472;-72
2021/04/24 10:29:07;;;;;;;3.33;1.42;;;15.70;45.00;;;;;;5074838;28;20016;-73
2021/04/24 10:31:34;;;;;;;4.45;1.35;;;16.10;44.60;;;;;;5056371;28;20059;-74
2021/04/24 10:34:01;;;;;;;2.58;1.17;;;16.40;43.90;;;;;;5056799;28;20059;-72
2021/04/24 10:36:28;;;;;;;3.45;1.33;;;16.70;43.30;;;;;;5075506;28;20032;-72
2021/04/24 10:38:55;;;;;;;2.25;1.08;;;17.10;43.30;;;;;;5075459;28;20108;-74
2021/04/24 10:41:58;;;;;;;3.72;1.13;;;17.50;41.90;;;;;;5075361;28;20555;-76
2021/04/24 10:44:25;;;;;;;1.98;0.90;;;17.90;40.80;;;;;;5057542;28;20024;-73
2021/04/24 10:46:53;;;;;;;5.70;1.23;;;18.50;40.90;;;;;;5075295;28;20190;-74
2021/04/24 10:49:26;;;;;;;3.53;1.30;;;18.90;40.00;;;;;;5057029;28;20028;-73
2021/04/24 10:52:17;;;;;;;2.03;0.88;;;19.50;38.60;;;;;;5075526;28;20029;-73
2021/04/24 10:54:43;;;;;;;3.85;0.95;;;20.10;37.50;;;;;;5075405;28;20387;-74
2021/04/24 10:57:37;;;;;;;3.83;0.85;;;20.70;38.40;;;;;;5057221;28;20534;-74
2021/04/24 11:00:03;;;;;;;3.00;0.88;;;21.30;36.90;;;;;;5074962;28;20472;-74
2021/04/24 11:02:56;;;;;;;1.75;0.70;;;21.70;36.50;;;;;;5075268;28;20059;-73
2021/04/24 11:05:28;;;;;;;3.50;0.98;;;21.80;34.50;;;;;;5074679;28;20052;-74
2021/04/24 11:08:19;;;;;;;3.22;0.93;;;21.70;34.60;;;;;;5075036;28;20095;-74
2021/04/24 11:11:07;;;;;;;3.42;1.27;;;21.50;34.00;;;;;;5075288;28;20032;-74
2021/04/24 11:13:41;;;;;;;4.18;1.20;;;21.20;33.90;;;;;;5073872;28;20028;-73
2021/04/24 11:16:09;;;;;;;3.05;1.30;;;21.00;33.60;;;;;;5073926;28;20025;-73
2021/04/24 11:18:38;;;;;;;2.90;1.30;;;20.80;33.50;;;;;;5074107;28;20105;-74
2021/04/24 11:21:06;;;;;;;5.13;1.30;;;20.60;32.40;;;;;;5074328;28;20021;-74
2021/04/24 11:23:43;;;;;;;3.72;1.67;;;20.30;32.20;;;;;;5074419;28;20032;-74
2021/04/24 11:26:12;;;;;;;5.95;1.80;;;20.10;33.50;;;;;;5057268;28;20060;-73
2021/04/24 11:28:56;;;;;;;3.72;1.90;;;20.00;34.10;;;;;;5056358;28;20032;-73
2021/04/24 11:32:05;;;;;;;7.00;2.00;;;19.80;33.70;;;;;;5056250;28;20033;-74
2021/04/24 11:34:35;;;;;;;9.43;2.00;;;19.70;34.30;;;;;;5071495;28;20023;-74
2021/04/24 11:37:35;;;;;;;7.85;2.00;;;19.70;34.50;;;;;;5035335;28;20029;-74
2021/04/24 11:40:23;;;;;;;5.57;1.80;;;19.60;34.20;;;;;;5053149;28;20472;-73
2021/04/24 11:42:48;;;;;;;6.72;1.67;;;19.60;34.20;;;;;;5035196;28;20415;-73
2021/04/24 11:45:15;;;;;;;3.58;1.85;;;19.70;34.30;;;;;;5054050;28;20104;-74
2021/04/24 11:47:46;;;;;;;2.70;1.25;;;19.80;33.90;;;;;;5036133;28;20111;-74
2021/04/24 11:50:13;;;;;;;4.80;1.52;;;19.90;34.00;;;;;;5052958;28;20029;-74
2021/04/24 11:52:39;;;;;;;4.90;2.00;;;20.10;34.00;;;;;;5036052;28;20056;-74
2021/04/24 11:55:06;;;;;;;7.03;2.17;;;20.20;33.70;;;;;;5053942;28;20033;-73
2021/04/24 11:57:31;;;;;;;4.10;1.55;;;20.20;33.70;;;;;;5053632;28;20547;-74
2021/04/24 11:59:57;;;;;;;4.88;1.92;;;20.40;33.70;;;;;;5053735;28;20113;-74
2021/04/24 12:02:27;;;;;;;6.30;2.42;;;20.40;33.40;;;;;;5035874;28;20120;-74
2021/04/24 12:05:11;;;;;;;5.05;2.25;;;20.40;33.20;;;;;;5036017;28;20052;-74
2021/04/24 12:07:44;;;;;;;5.20;1.98;;;20.20;33.60;;;;;;5035884;28;20025;-74
2021/04/24 12:10:12;;;;;;;7.22;2.63;;;20.10;33.80;;;;;;5053305;28;20094;-73
2021/04/24 12:12:43;;;;;;;6.68;2.80;;;20.00;34.10;;;;;;5035778;28;20013;-73
2021/04/24 12:15:14;;;;;;;4.35;2.33;;;19.90;34.50;;;;;;5035742;28;20615;-73
2021/04/24 12:17:57;;;;;;;7.35;2.50;;;19.70;34.80;;;;;;5035639;28;20499;-73
2021/04/24 12:20:27;;;;;;;7.93;2.47;;;19.60;35.30;;;;;;5053375;28;20104;-73
2021/04/24 12:22:54;;;;;;;4.35;1.83;;;19.40;35.60;;;;;;5035457;28;20037;-74
2021/04/24 12:25:24;;;;;;;8.32;2.10;;;19.30;35.70;;;;;;5035518;28;20025;-74
2021/04/24 12:27:52;;;;;;;7.90;2.72;;;19.10;35.70;;;;;;5035608;28;20025;-74
2021/04/24 12:30:28;;;;;;;7.28;2.85;;;19.00;35.90;;;;;;5035317;28;20087;-73
2021/04/24 12:33:20;;;;;;;7.53;2.67;;;18.90;36.30;;;;;;5053277;28;20031;-72
2021/04/24 12:35:48;;;;;;;6.00;2.70;;;18.80;36.50;;;;;;5053210;28;20043;-73
2021/04/24 12:38:16;;;;;;;6.88;2.67;;;18.80;36.60;;;;;;5035440;28;20036;-73
2021/04/24 12:40:57;;;;;;;9.82;2.95;;;18.70;36.90;;;;;;5035675;28;20111;-72
2021/04/24 12:43:28;;;;;;;5.70;2.63;;;18.70;37.50;;;;;;5035322;28;20037;-73
2021/04/24 12:45:57;;;;;;;5.20;2.40;;;18.60;37.50;;;;;;5035331;28;20071;-74
2021/04/24 12:48:27;;;;;;;7.13;3.08;;;18.40;37.40;;;;;;5053153;28;20362;-73
2021/04/24 12:50:59;;;;;;;6.32;2.67;;;18.30;37.80;;;;;;5035039;28;20021;-74
2021/04/24 12:53:40;;;;;;;8.15;2.60;;;18.20;38.00;;;;;;5035470;28;20036;-74